sensor_id;sensor_type;location;lat;lon;timestamp;P1;durP1;ratioP1;P2;durP2;ratioP2
15536;SDS011;7870;52.448;13.270;2023-06-22T00:02:25;18.58;;;16.58;;
15536;SDS011;7870;52.448;13.270;2023-06-22T00:04:52;17.40;;;15.80;;
15536;SDS011;7870;52.448;13.270;2023-06-22T00:07:18;18.13;;;16.33;;
15536;SDS011;7870;52.448;13.270;2023-06-22T00:09:45;16.95;;;15.45;;
15536;SDS011;7870;52.448;13.270;2023-06-22T00:12:12;16.92;;;15.35;;
15536;SDS011;7870;52.448;13.270;2023-06-22T00:14:38;17.95;;;16.33;;
15536;SDS011;7870;52.448;13.270;2023-06-22T00:17:05;17.52;;;16.02;;
15536;SDS011;7870;52.448;13.270;2023-06-22T00:19:31;17.83;;;16.10;;
15536;SDS011;7870;52.448;13.270;2023-06-22T00:22:01;18.02;;;16.30;;
15536;SDS011;7870;52.448;13.270;2023-06-22T00:24:30;18.77;;;17.00;;
15536;SDS011;7870;52.448;13.270;2023-06-22T00:26:56;17.13;;;15.63;;
15536;SDS011;7870;52.448;13.270;2023-06-22T00:29:23;17.27;;;15.55;;
15536;SDS011;7870;52.448;13.270;2023-06-22T00:31:51;16.85;;;15.40;;
15536;SDS011;7870;52.448;13.270;2023-06-22T00:34:17;17.30;;;15.65;;
15536;SDS011;7870;52.448;13.270;2023-06-22T00:36:44;18.25;;;16.48;;
15536;SDS011;7870;52.448;13.270;2023-06-22T00:39:11;18.50;;;16.38;;
15536;SDS011;7870;52.448;13.270;2023-06-22T00:41:38;17.30;;;15.77;;
15536;SDS011;7870;52.448;13.270;2023-06-22T00:44:04;18.05;;;16.25;;
15536;SDS011;7870;52.448;13.270;2023-06-22T00:46:33;18.35;;;16.50;;
15536;SDS011;7870;52.448;13.270;2023-06-22T00:48:59;18.58;;;16.77;;
15536;SDS011;7870;52.448;13.270;2023-06-22T00:51:27;18.20;;;16.52;;
15536;SDS011;7870;52.448;13.270;2023-06-22T00:53:53;18.58;;;16.35;;
15536;SDS011;7870;52.448;13.270;2023-06-22T00:56:20;17.63;;;16.02;;
15536;SDS011;7870;52.448;13.270;2023-06-22T00:58:51;19.02;;;17.13;;
15536;SDS011;7870;52.448;13.270;2023-06-22T01:01:19;17.77;;;15.90;;
15536;SDS011;7870;52.448;13.270;2023-06-22T01:03:50;18.35;;;16.33;;
15536;SDS011;7870;52.448;13.270;2023-06-22T01:06:20;16.95;;;15.48;;
15536;SDS011;7870;52.448;13.270;2023-06-22T01:08:57;16.95;;;15.55;;
15536;SDS011;7870;52.448;13.270;2023-06-22T01:11:29;16.98;;;15.45;;
15536;SDS011;7870;52.448;13.270;2023-06-22T01:14:03;17.80;;;15.77;;
15536;SDS011;7870;52.448;13.270;2023-06-22T01:16:34;17.35;;;15.75;;
15536;SDS011;7870;52.448;13.270;2023-06-22T01:19:09;16.55;;;14.98;;
15536;SDS011;7870;52.448;13.270;2023-06-22T01:21:45;17.73;;;16.10;;
15536;SDS011;7870;52.448;13.270;2023-06-22T01:26:59;18.05;;;16.27;;
15536;SDS011;7870;52.448;13.270;2023-06-22T01:29:49;17.40;;;15.70;;
15536;SDS011;7870;52.448;13.270;2023-06-22T01:32:17;18.17;;;16.27;;
15536;SDS011;7870;52.448;13.270;2023-06-22T01:34:44;19.15;;;16.55;;
15536;SDS011;7870;52.448;13.270;2023-06-22T01:37:12;17.60;;;15.75;;
15536;SDS011;7870;52.448;13.270;2023-06-22T01:39:40;17.02;;;15.35;;
15536;SDS011;7870;52.448;13.270;2023-06-22T01:42:07;17.80;;;15.80;;
15536;SDS011;7870;52.448;13.270;2023-06-22T01:44:40;17.80;;;16.00;;
15536;SDS011;7870;52.448;13.270;2023-06-22T01:47:08;17.02;;;15.32;;
15536;SDS011;7870;52.448;13.270;2023-06-22T01:49:35;17.08;;;15.38;;
15536;SDS011;7870;52.448;13.270;2023-06-22T01:52:03;17.70;;;15.80;;
15536;SDS011;7870;52.448;13.270;2023-06-22T01:54:30;19.95;;;16.45;;
15536;SDS011;7870;52.448;13.270;2023-06-22T01:56:57;19.02;;;16.02;;
15536;SDS011;7870;52.448;13.270;2023-06-22T01:59:25;17.80;;;16.17;;
15536;SDS011;7870;52.448;13.270;2023-06-22T02:02:03;17.15;;;15.48;;
15536;SDS011;7870;52.448;13.270;2023-06-22T02:04:34;17.40;;;15.73;;
15536;SDS011;7870;52.448;13.270;2023-06-22T02:07:05;17.90;;;16.25;;
15536;SDS011;7870;52.448;13.270;2023-06-22T02:09:36;17.92;;;16.30;;
15536;SDS011;7870;52.448;13.270;2023-06-22T02:12:04;17.20;;;15.57;;
15536;SDS011;7870;52.448;13.270;2023-06-22T02:14:31;18.13;;;16.52;;
15536;SDS011;7870;52.448;13.270;2023-06-22T02:16:57;17.20;;;15.70;;
15536;SDS011;7870;52.448;13.270;2023-06-22T02:19:27;17.85;;;16.17;;
15536;SDS011;7870;52.448;13.270;2023-06-22T02:21:53;18.13;;;16.33;;
15536;SDS011;7870;52.448;13.270;2023-06-22T02:24:20;17.75;;;16.15;;
15536;SDS011;7870;52.448;13.270;2023-06-22T02:26:49;18.80;;;17.02;;
15536;SDS011;7870;52.448;13.270;2023-06-22T02:29:16;17.35;;;15.65;;
15536;SDS011;7870;52.448;13.270;2023-06-22T02:31:44;18.65;;;17.02;;
15536;SDS011;7870;52.448;13.270;2023-06-22T02:34:11;17.63;;;16.02;;
15536;SDS011;7870;52.448;13.270;2023-06-22T02:36:43;18.27;;;16.48;;
15536;SDS011;7870;52.448;13.270;2023-06-22T02:39:18;17.63;;;15.60;;
15536;SDS011;7870;52.448;13.270;2023-06-22T02:41:49;18.52;;;16.65;;
15536;SDS011;7870;52.448;13.270;2023-06-22T02:44:16;18.73;;;16.42;;
15536;SDS011;7870;52.448;13.270;2023-06-22T02:46:44;18.55;;;16.75;;
15536;SDS011;7870;52.448;13.270;2023-06-22T02:49:12;17.88;;;16.05;;
15536;SDS011;7870;52.448;13.270;2023-06-22T02:51:41;19.20;;;16.02;;
15536;SDS011;7870;52.448;13.270;2023-06-22T02:54:11;18.10;;;16.40;;
15536;SDS011;7870;52.448;13.270;2023-06-22T02:56:38;16.63;;;15.07;;
15536;SDS011;7870;52.448;13.270;2023-06-22T02:59:07;16.42;;;15.00;;
15536;SDS011;7870;52.448;13.270;2023-06-22T03:01:37;16.70;;;15.17;;
15536;SDS011;7870;52.448;13.270;2023-06-22T03:04:15;17.02;;;15.45;;
15536;SDS011;7870;52.448;13.270;2023-06-22T03:06:41;16.55;;;15.13;;
15536;SDS011;7870;52.448;13.270;2023-06-22T03:09:08;17.30;;;15.55;;
15536;SDS011;7870;52.448;13.270;2023-06-22T03:11:35;17.50;;;15.80;;
15536;SDS011;7870;52.448;13.270;2023-06-22T03:14:02;17.30;;;15.70;;
15536;SDS011;7870;52.448;13.270;2023-06-22T03:16:29;17.13;;;15.38;;
15536;SDS011;7870;52.448;13.270;2023-06-22T03:18:56;20.42;;;15.57;;
15536;SDS011;7870;52.448;13.270;2023-06-22T03:21:23;18.33;;;14.98;;
15536;SDS011;7870;52.448;13.270;2023-06-22T03:23:51;16.42;;;14.77;;
15536;SDS011;7870;52.448;13.270;2023-06-22T03:26:17;20.10;;;15.98;;
15536;SDS011;7870;52.448;13.270;2023-06-22T03:28:44;17.98;;;16.10;;
15536;SDS011;7870;52.448;13.270;2023-06-22T03:31:11;18.05;;;15.88;;
15536;SDS011;7870;52.448;13.270;2023-06-22T03:33:39;17.35;;;15.05;;
15536;SDS011;7870;52.448;13.270;2023-06-22T03:36:06;16.13;;;14.52;;
15536;SDS011;7870;52.448;13.270;2023-06-22T03:38:33;15.90;;;14.30;;
15536;SDS011;7870;52.448;13.270;2023-06-22T03:41:00;17.05;;;14.68;;
15536;SDS011;7870;52.448;13.270;2023-06-22T03:43:29;16.88;;;15.32;;
15536;SDS011;7870;52.448;13.270;2023-06-22T03:45:55;17.58;;;14.48;;
15536;SDS011;7870;52.448;13.270;2023-06-22T03:48:22;16.52;;;14.70;;
15536;SDS011;7870;52.448;13.270;2023-06-22T03:50:48;16.75;;;14.85;;
15536;SDS011;7870;52.448;13.270;2023-06-22T03:53:15;17.08;;;14.07;;
15536;SDS011;7870;52.448;13.270;2023-06-22T03:55:49;15.88;;;14.13;;
15536;SDS011;7870;52.448;13.270;2023-06-22T03:58:17;18.52;;;15.05;;
15536;SDS011;7870;52.448;13.270;2023-06-22T04:00:50;19.88;;;14.77;;
15536;SDS011;7870;52.448;13.270;2023-06-22T04:03:18;17.08;;;14.52;;
15536;SDS011;7870;52.448;13.270;2023-06-22T04:05:45;15.10;;;13.80;;
15536;SDS011;7870;52.448;13.270;2023-06-22T04:08:13;15.65;;;13.98;;
15536;SDS011;7870;52.448;13.270;2023-06-22T04:10:40;16.42;;;14.63;;
15536;SDS011;7870;52.448;13.270;2023-06-22T04:13:07;19.38;;;14.32;;
15536;SDS011;7870;52.448;13.270;2023-06-22T04:15:33;15.98;;;14.40;;
15536;SDS011;7870;52.448;13.270;2023-06-22T04:18:00;16.60;;;14.40;;
15536;SDS011;7870;52.448;13.270;2023-06-22T04:20:27;15.35;;;13.43;;
15536;SDS011;7870;52.448;13.270;2023-06-22T04:22:55;15.98;;;14.27;;
15536;SDS011;7870;52.448;13.270;2023-06-22T04:25:22;16.90;;;14.45;;
15536;SDS011;7870;52.448;13.270;2023-06-22T04:27:49;17.58;;;13.45;;
15536;SDS011;7870;52.448;13.270;2023-06-22T04:30:17;15.30;;;13.80;;
15536;SDS011;7870;52.448;13.270;2023-06-22T04:32:44;14.88;;;13.48;;
15536;SDS011;7870;52.448;13.270;2023-06-22T04:35:11;15.82;;;14.13;;
15536;SDS011;7870;52.448;13.270;2023-06-22T04:37:38;15.18;;;13.75;;
15536;SDS011;7870;52.448;13.270;2023-06-22T04:40:06;14.80;;;13.23;;
15536;SDS011;7870;52.448;13.270;2023-06-22T04:42:34;14.02;;;12.65;;
15536;SDS011;7870;52.448;13.270;2023-06-22T04:45:02;13.43;;;12.25;;
15536;SDS011;7870;52.448;13.270;2023-06-22T04:47:29;16.10;;;14.68;;
15536;SDS011;7870;52.448;13.270;2023-06-22T04:49:56;14.65;;;13.25;;
15536;SDS011;7870;52.448;13.270;2023-06-22T04:52:22;14.55;;;13.20;;
15536;SDS011;7870;52.448;13.270;2023-06-22T04:54:50;15.25;;;13.75;;
15536;SDS011;7870;52.448;13.270;2023-06-22T04:57:24;14.00;;;12.65;;
15536;SDS011;7870;52.448;13.270;2023-06-22T04:59:58;14.13;;;12.73;;
15536;SDS011;7870;52.448;13.270;2023-06-22T05:02:38;14.70;;;13.35;;
15536;SDS011;7870;52.448;13.270;2023-06-22T05:05:05;14.40;;;12.95;;
15536;SDS011;7870;52.448;13.270;2023-06-22T05:07:34;14.73;;;13.32;;
15536;SDS011;7870;52.448;13.270;2023-06-22T05:10:01;13.93;;;12.05;;
15536;SDS011;7870;52.448;13.270;2023-06-22T05:12:31;13.95;;;12.63;;
15536;SDS011;7870;52.448;13.270;2023-06-22T05:14:58;12.65;;;11.50;;
15536;SDS011;7870;52.448;13.270;2023-06-22T05:17:25;12.10;;;11.00;;
15536;SDS011;7870;52.448;13.270;2023-06-22T05:19:51;11.90;;;10.80;;
15536;SDS011;7870;52.448;13.270;2023-06-22T05:22:18;12.02;;;10.82;;
15536;SDS011;7870;52.448;13.270;2023-06-22T05:24:45;11.25;;;10.05;;
15536;SDS011;7870;52.448;13.270;2023-06-22T05:27:12;11.15;;;9.80;;
15536;SDS011;7870;52.448;13.270;2023-06-22T05:29:39;10.60;;;9.60;;
15536;SDS011;7870;52.448;13.270;2023-06-22T05:32:06;12.25;;;9.27;;
15536;SDS011;7870;52.448;13.270;2023-06-22T05:34:33;9.40;;;8.40;;
15536;SDS011;7870;52.448;13.270;2023-06-22T05:36:59;9.43;;;8.40;;
15536;SDS011;7870;52.448;13.270;2023-06-22T05:39:26;9.10;;;8.20;;
15536;SDS011;7870;52.448;13.270;2023-06-22T05:41:53;10.20;;;8.25;;
15536;SDS011;7870;52.448;13.270;2023-06-22T05:44:19;10.68;;;8.48;;
15536;SDS011;7870;52.448;13.270;2023-06-22T05:46:46;9.07;;;8.07;;
15536;SDS011;7870;52.448;13.270;2023-06-22T05:49:14;10.55;;;8.10;;
15536;SDS011;7870;52.448;13.270;2023-06-22T05:51:42;8.82;;;7.93;;
15536;SDS011;7870;52.448;13.270;2023-06-22T05:54:09;10.45;;;7.38;;
15536;SDS011;7870;52.448;13.270;2023-06-22T05:56:36;8.85;;;7.32;;
15536;SDS011;7870;52.448;13.270;2023-06-22T05:59:03;8.48;;;7.25;;
15536;SDS011;7870;52.448;13.270;2023-06-22T06:01:30;9.45;;;6.22;;
15536;SDS011;7870;52.448;13.270;2023-06-22T06:06:30;9.63;;;5.70;;
15536;SDS011;7870;52.448;13.270;2023-06-22T06:08:57;8.20;;;6.18;;
15536;SDS011;7870;52.448;13.270;2023-06-22T06:11:25;7.70;;;5.70;;
15536;SDS011;7870;52.448;13.270;2023-06-22T06:13:52;7.70;;;5.97;;
15536;SDS011;7870;52.448;13.270;2023-06-22T06:16:19;7.43;;;5.88;;
15536;SDS011;7870;52.448;13.270;2023-06-22T06:18:45;7.43;;;5.47;;
15536;SDS011;7870;52.448;13.270;2023-06-22T06:21:15;7.03;;;5.03;;
15536;SDS011;7870;52.448;13.270;2023-06-22T06:23:42;9.10;;;5.25;;
15536;SDS011;7870;52.448;13.270;2023-06-22T06:26:08;7.10;;;4.65;;
15536;SDS011;7870;52.448;13.270;2023-06-22T06:28:35;5.97;;;4.53;;
15536;SDS011;7870;52.448;13.270;2023-06-22T06:31:02;6.03;;;4.28;;
15536;SDS011;7870;52.448;13.270;2023-06-22T06:33:29;4.20;;;3.65;;
15536;SDS011;7870;52.448;13.270;2023-06-22T06:35:57;6.35;;;3.80;;
15536;SDS011;7870;52.448;13.270;2023-06-22T06:38:24;5.20;;;4.32;;
15536;SDS011;7870;52.448;13.270;2023-06-22T06:40:51;4.88;;;3.60;;
15536;SDS011;7870;52.448;13.270;2023-06-22T06:43:17;5.70;;;3.45;;
15536;SDS011;7870;52.448;13.270;2023-06-22T06:45:44;6.05;;;3.95;;
15536;SDS011;7870;52.448;13.270;2023-06-22T06:48:11;6.70;;;3.80;;
15536;SDS011;7870;52.448;13.270;2023-06-22T06:50:37;5.97;;;3.55;;
15536;SDS011;7870;52.448;13.270;2023-06-22T06:53:04;5.93;;;3.50;;
15536;SDS011;7870;52.448;13.270;2023-06-22T06:55:32;6.82;;;3.78;;
15536;SDS011;7870;52.448;13.270;2023-06-22T06:58:02;3.95;;;3.30;;
15536;SDS011;7870;52.448;13.270;2023-06-22T07:00:30;5.18;;;3.30;;
15536;SDS011;7870;52.448;13.270;2023-06-22T07:02:57;6.40;;;3.15;;
15536;SDS011;7870;52.448;13.270;2023-06-22T07:05:24;6.28;;;3.50;;
15536;SDS011;7870;52.448;13.270;2023-06-22T07:07:51;5.75;;;3.38;;
15536;SDS011;7870;52.448;13.270;2023-06-22T07:10:17;4.57;;;3.55;;
15536;SDS011;7870;52.448;13.270;2023-06-22T07:12:44;6.97;;;3.30;;
15536;SDS011;7870;52.448;13.270;2023-06-22T07:18:28;4.35;;;3.10;;
15536;SDS011;7870;52.448;13.270;2023-06-22T07:20:54;5.10;;;3.25;;
15536;SDS011;7870;52.448;13.270;2023-06-22T07:23:21;5.43;;;2.75;;
15536;SDS011;7870;52.448;13.270;2023-06-22T07:25:48;4.18;;;2.80;;
15536;SDS011;7870;52.448;13.270;2023-06-22T07:28:15;7.60;;;3.00;;
15536;SDS011;7870;52.448;13.270;2023-06-22T07:30:42;7.97;;;3.55;;
15536;SDS011;7870;52.448;13.270;2023-06-22T07:33:08;6.53;;;3.35;;
15536;SDS011;7870;52.448;13.270;2023-06-22T07:35:35;4.47;;;3.13;;
15536;SDS011;7870;52.448;13.270;2023-06-22T07:38:02;3.85;;;2.72;;
15536;SDS011;7870;52.448;13.270;2023-06-22T07:40:31;5.55;;;3.25;;
15536;SDS011;7870;52.448;13.270;2023-06-22T07:42:58;4.18;;;3.00;;
15536;SDS011;7870;52.448;13.270;2023-06-22T07:45:25;7.78;;;2.70;;
15536;SDS011;7870;52.448;13.270;2023-06-22T07:47:52;6.00;;;3.10;;
15536;SDS011;7870;52.448;13.270;2023-06-22T07:50:18;4.28;;;2.80;;
15536;SDS011;7870;52.448;13.270;2023-06-22T07:52:45;3.65;;;2.63;;
15536;SDS011;7870;52.448;13.270;2023-06-22T07:55:12;6.18;;;3.40;;
15536;SDS011;7870;52.448;13.270;2023-06-22T07:57:38;5.90;;;2.50;;
15536;SDS011;7870;52.448;13.270;2023-06-22T08:00:05;4.85;;;3.20;;
15536;SDS011;7870;52.448;13.270;2023-06-22T08:02:45;5.80;;;3.00;;
15536;SDS011;7870;52.448;13.270;2023-06-22T08:05:14;4.90;;;3.17;;
15536;SDS011;7870;52.448;13.270;2023-06-22T08:07:59;5.18;;;3.05;;
15536;SDS011;7870;52.448;13.270;2023-06-22T08:10:26;3.55;;;2.40;;
15536;SDS011;7870;52.448;13.270;2023-06-22T08:12:53;5.25;;;3.20;;
15536;SDS011;7870;52.448;13.270;2023-06-22T08:15:19;3.47;;;2.17;;
15536;SDS011;7870;52.448;13.270;2023-06-22T08:17:46;7.90;;;3.45;;
15536;SDS011;7870;52.448;13.270;2023-06-22T08:20:13;12.73;;;4.10;;
15536;SDS011;7870;52.448;13.270;2023-06-22T08:22:40;7.05;;;4.05;;
15536;SDS011;7870;52.448;13.270;2023-06-22T08:25:07;13.95;;;3.72;;
15536;SDS011;7870;52.448;13.270;2023-06-22T08:27:34;4.88;;;3.30;;
15536;SDS011;7870;52.448;13.270;2023-06-22T08:30:02;4.85;;;2.40;;
15536;SDS011;7870;52.448;13.270;2023-06-22T08:32:28;5.82;;;3.08;;
15536;SDS011;7870;52.448;13.270;2023-06-22T08:34:56;3.67;;;2.60;;
15536;SDS011;7870;52.448;13.270;2023-06-22T08:37:23;6.20;;;2.78;;
15536;SDS011;7870;52.448;13.270;2023-06-22T08:39:58;4.15;;;2.88;;
15536;SDS011;7870;52.448;13.270;2023-06-22T08:42:25;6.63;;;3.10;;
15536;SDS011;7870;52.448;13.270;2023-06-22T08:44:53;4.80;;;2.90;;
15536;SDS011;7870;52.448;13.270;2023-06-22T08:47:20;3.47;;;2.65;;
15536;SDS011;7870;52.448;13.270;2023-06-22T08:49:48;4.30;;;2.70;;
15536;SDS011;7870;52.448;13.270;2023-06-22T08:52:15;4.45;;;2.33;;
15536;SDS011;7870;52.448;13.270;2023-06-22T08:54:41;4.93;;;2.60;;
15536;SDS011;7870;52.448;13.270;2023-06-22T08:57:08;4.25;;;2.50;;
15536;SDS011;7870;52.448;13.270;2023-06-22T08:59:35;4.72;;;2.47;;
15536;SDS011;7870;52.448;13.270;2023-06-22T09:02:01;3.78;;;2.67;;
15536;SDS011;7870;52.448;13.270;2023-06-22T09:04:28;4.18;;;2.80;;
15536;SDS011;7870;52.448;13.270;2023-06-22T09:06:55;4.57;;;2.97;;
15536;SDS011;7870;52.448;13.270;2023-06-22T09:09:21;4.15;;;2.53;;
15536;SDS011;7870;52.448;13.270;2023-06-22T09:11:48;4.03;;;2.70;;
15536;SDS011;7870;52.448;13.270;2023-06-22T09:14:15;7.43;;;2.75;;
15536;SDS011;7870;52.448;13.270;2023-06-22T09:16:42;3.28;;;2.28;;
15536;SDS011;7870;52.448;13.270;2023-06-22T09:19:08;4.10;;;2.80;;
15536;SDS011;7870;52.448;13.270;2023-06-22T09:21:35;4.75;;;2.88;;
15536;SDS011;7870;52.448;13.270;2023-06-22T09:24:02;5.00;;;2.55;;
15536;SDS011;7870;52.448;13.270;2023-06-22T09:26:29;5.28;;;2.60;;
15536;SDS011;7870;52.448;13.270;2023-06-22T09:28:56;4.50;;;2.75;;
15536;SDS011;7870;52.448;13.270;2023-06-22T09:31:23;3.65;;;2.80;;
15536;SDS011;7870;52.448;13.270;2023-06-22T09:33:52;5.20;;;2.53;;
15536;SDS011;7870;52.448;13.270;2023-06-22T09:36:20;8.57;;;3.20;;
15536;SDS011;7870;52.448;13.270;2023-06-22T09:38:48;4.10;;;2.92;;
15536;SDS011;7870;52.448;13.270;2023-06-22T09:41:15;4.55;;;2.80;;
15536;SDS011;7870;52.448;13.270;2023-06-22T09:43:42;4.22;;;2.50;;
15536;SDS011;7870;52.448;13.270;2023-06-22T09:46:08;3.95;;;2.63;;
15536;SDS011;7870;52.448;13.270;2023-06-22T09:48:35;4.57;;;2.55;;
15536;SDS011;7870;52.448;13.270;2023-06-22T09:53:32;4.75;;;3.17;;
15536;SDS011;7870;52.448;13.270;2023-06-22T09:56:01;6.22;;;2.70;;
15536;SDS011;7870;52.448;13.270;2023-06-22T09:58:28;3.80;;;2.97;;
15536;SDS011;7870;52.448;13.270;2023-06-22T10:00:54;4.18;;;2.97;;
15536;SDS011;7870;52.448;13.270;2023-06-22T10:03:21;4.07;;;2.70;;
15536;SDS011;7870;52.448;13.270;2023-06-22T10:05:49;6.18;;;3.45;;
15536;SDS011;7870;52.448;13.270;2023-06-22T10:08:16;4.88;;;3.03;;
15536;SDS011;7870;52.448;13.270;2023-06-22T10:10:42;4.25;;;3.28;;
15536;SDS011;7870;52.448;13.270;2023-06-22T10:13:09;4.72;;;3.25;;
15536;SDS011;7870;52.448;13.270;2023-06-22T10:15:36;4.35;;;2.97;;
15536;SDS011;7870;52.448;13.270;2023-06-22T10:18:03;5.95;;;3.60;;
15536;SDS011;7870;52.448;13.270;2023-06-22T10:20:30;4.63;;;3.20;;
15536;SDS011;7870;52.448;13.270;2023-06-22T10:22:58;3.92;;;2.92;;
15536;SDS011;7870;52.448;13.270;2023-06-22T10:25:26;4.03;;;3.22;;
15536;SDS011;7870;52.448;13.270;2023-06-22T10:27:53;4.18;;;2.80;;
15536;SDS011;7870;52.448;13.270;2023-06-22T10:30:20;4.60;;;3.63;;
15536;SDS011;7870;52.448;13.270;2023-06-22T10:32:47;4.78;;;3.03;;
15536;SDS011;7870;52.448;13.270;2023-06-22T10:35:14;6.25;;;3.67;;
15536;SDS011;7870;52.448;13.270;2023-06-22T10:37:43;3.85;;;3.20;;
15536;SDS011;7870;52.448;13.270;2023-06-22T10:40:14;5.30;;;3.70;;
15536;SDS011;7870;52.448;13.270;2023-06-22T10:42:49;3.97;;;3.10;;
15536;SDS011;7870;52.448;13.270;2023-06-22T10:45:26;5.47;;;3.63;;
15536;SDS011;7870;52.448;13.270;2023-06-22T10:47:55;5.45;;;3.15;;
15536;SDS011;7870;52.448;13.270;2023-06-22T10:50:21;6.30;;;3.78;;
15536;SDS011;7870;52.448;13.270;2023-06-22T10:52:50;6.10;;;3.10;;
15536;SDS011;7870;52.448;13.270;2023-06-22T10:55:17;7.47;;;3.67;;
15536;SDS011;7870;52.448;13.270;2023-06-22T10:57:43;5.97;;;3.22;;
15536;SDS011;7870;52.448;13.270;2023-06-22T11:00:13;5.10;;;3.88;;
15536;SDS011;7870;52.448;13.270;2023-06-22T11:02:40;6.97;;;3.13;;
15536;SDS011;7870;52.448;13.270;2023-06-22T11:05:07;4.55;;;3.67;;
15536;SDS011;7870;52.448;13.270;2023-06-22T11:07:34;4.97;;;3.72;;
15536;SDS011;7870;52.448;13.270;2023-06-22T11:10:01;5.30;;;3.08;;
15536;SDS011;7870;52.448;13.270;2023-06-22T11:12:27;5.85;;;3.40;;
15536;SDS011;7870;52.448;13.270;2023-06-22T11:14:54;5.30;;;3.45;;
15536;SDS011;7870;52.448;13.270;2023-06-22T11:17:25;4.20;;;3.78;;
15536;SDS011;7870;52.448;13.270;2023-06-22T11:19:51;5.78;;;3.85;;
15536;SDS011;7870;52.448;13.270;2023-06-22T11:22:18;3.92;;;3.30;;
15536;SDS011;7870;52.448;13.270;2023-06-22T11:24:45;6.35;;;3.38;;
15536;SDS011;7870;52.448;13.270;2023-06-22T11:27:12;5.63;;;4.00;;
15536;SDS011;7870;52.448;13.270;2023-06-22T11:29:38;4.45;;;3.97;;
15536;SDS011;7870;52.448;13.270;2023-06-22T11:32:06;4.55;;;3.60;;
15536;SDS011;7870;52.448;13.270;2023-06-22T11:34:33;4.70;;;4.18;;
15536;SDS011;7870;52.448;13.270;2023-06-22T11:37:00;4.03;;;3.38;;
15536;SDS011;7870;52.448;13.270;2023-06-22T11:39:27;6.65;;;4.25;;
15536;SDS011;7870;52.448;13.270;2023-06-22T11:42:08;6.03;;;3.92;;
15536;SDS011;7870;52.448;13.270;2023-06-22T11:44:36;4.00;;;3.60;;
15536;SDS011;7870;52.448;13.270;2023-06-22T11:47:03;4.47;;;4.05;;
15536;SDS011;7870;52.448;13.270;2023-06-22T11:49:30;5.05;;;3.80;;
15536;SDS011;7870;52.448;13.270;2023-06-22T11:51:57;5.28;;;4.10;;
15536;SDS011;7870;52.448;13.270;2023-06-22T11:54:24;5.90;;;3.70;;
15536;SDS011;7870;52.448;13.270;2023-06-22T11:56:51;5.25;;;3.33;;
15536;SDS011;7870;52.448;13.270;2023-06-22T11:59:17;5.38;;;3.80;;
15536;SDS011;7870;52.448;13.270;2023-06-22T12:01:44;4.18;;;3.67;;
15536;SDS011;7870;52.448;13.270;2023-06-22T12:04:11;5.20;;;3.70;;
15536;SDS011;7870;52.448;13.270;2023-06-22T12:06:38;4.68;;;3.70;;
15536;SDS011;7870;52.448;13.270;2023-06-22T12:09:08;4.25;;;3.40;;
15536;SDS011;7870;52.448;13.270;2023-06-22T12:11:35;5.85;;;3.42;;
15536;SDS011;7870;52.448;13.270;2023-06-22T12:14:01;6.78;;;3.80;;
15536;SDS011;7870;52.448;13.270;2023-06-22T12:16:28;8.95;;;3.97;;
15536;SDS011;7870;52.448;13.270;2023-06-22T12:18:55;5.15;;;2.95;;
15536;SDS011;7870;52.448;13.270;2023-06-22T12:21:22;4.35;;;3.75;;
15536;SDS011;7870;52.448;13.270;2023-06-22T12:23:49;4.43;;;3.20;;
15536;SDS011;7870;52.448;13.270;2023-06-22T12:26:16;4.90;;;3.05;;
15536;SDS011;7870;52.448;13.270;2023-06-22T12:28:42;5.70;;;3.80;;
15536;SDS011;7870;52.448;13.270;2023-06-22T12:31:09;5.50;;;3.60;;
15536;SDS011;7870;52.448;13.270;2023-06-22T12:33:36;4.68;;;3.97;;
15536;SDS011;7870;52.448;13.270;2023-06-22T12:36:02;4.93;;;3.65;;
15536;SDS011;7870;52.448;13.270;2023-06-22T12:38:38;4.65;;;4.15;;
15536;SDS011;7870;52.448;13.270;2023-06-22T12:41:04;6.90;;;3.83;;
15536;SDS011;7870;52.448;13.270;2023-06-22T12:43:31;6.05;;;3.85;;
15536;SDS011;7870;52.448;13.270;2023-06-22T12:45:58;4.97;;;3.80;;
15536;SDS011;7870;52.448;13.270;2023-06-22T12:48:25;6.38;;;3.90;;
15536;SDS011;7870;52.448;13.270;2023-06-22T12:50:53;6.57;;;4.55;;
15536;SDS011;7870;52.448;13.270;2023-06-22T12:53:21;4.30;;;3.72;;
15536;SDS011;7870;52.448;13.270;2023-06-22T12:55:49;4.50;;;3.90;;
15536;SDS011;7870;52.448;13.270;2023-06-22T12:58:16;5.88;;;3.70;;
15536;SDS011;7870;52.448;13.270;2023-06-22T13:00:43;3.88;;;3.40;;
15536;SDS011;7870;52.448;13.270;2023-06-22T13:03:10;5.50;;;4.40;;
15536;SDS011;7870;52.448;13.270;2023-06-22T13:05:36;5.05;;;4.22;;
15536;SDS011;7870;52.448;13.270;2023-06-22T13:08:04;5.10;;;4.10;;
15536;SDS011;7870;52.448;13.270;2023-06-22T13:10:31;5.38;;;4.13;;
15536;SDS011;7870;52.448;13.270;2023-06-22T13:12:58;4.80;;;3.90;;
15536;SDS011;7870;52.448;13.270;2023-06-22T13:15:30;5.55;;;4.20;;
15536;SDS011;7870;52.448;13.270;2023-06-22T13:17:57;5.50;;;3.78;;
15536;SDS011;7870;52.448;13.270;2023-06-22T13:20:24;4.85;;;3.88;;
15536;SDS011;7870;52.448;13.270;2023-06-22T13:22:50;5.35;;;3.95;;
15536;SDS011;7870;52.448;13.270;2023-06-22T13:25:17;6.35;;;4.40;;
15536;SDS011;7870;52.448;13.270;2023-06-22T13:27:46;5.28;;;3.80;;
15536;SDS011;7870;52.448;13.270;2023-06-22T13:30:12;4.82;;;4.10;;
15536;SDS011;7870;52.448;13.270;2023-06-22T13:32:40;5.00;;;4.28;;
15536;SDS011;7870;52.448;13.270;2023-06-22T13:35:09;6.53;;;4.05;;
15536;SDS011;7870;52.448;13.270;2023-06-22T13:37:36;4.97;;;3.92;;
15536;SDS011;7870;52.448;13.270;2023-06-22T13:40:03;5.13;;;4.10;;
15536;SDS011;7870;52.448;13.270;2023-06-22T13:42:32;4.18;;;3.78;;
15536;SDS011;7870;52.448;13.270;2023-06-22T13:44:59;5.93;;;4.25;;
15536;SDS011;7870;52.448;13.270;2023-06-22T13:47:26;5.35;;;4.00;;
15536;SDS011;7870;52.448;13.270;2023-06-22T13:49:56;8.77;;;4.60;;
15536;SDS011;7870;52.448;13.270;2023-06-22T13:52:24;6.15;;;4.45;;
15536;SDS011;7870;52.448;13.270;2023-06-22T13:54:51;5.90;;;3.95;;
15536;SDS011;7870;52.448;13.270;2023-06-22T13:57:18;5.40;;;4.05;;
15536;SDS011;7870;52.448;13.270;2023-06-22T14:00:50;6.43;;;4.18;;
15536;SDS011;7870;52.448;13.270;2023-06-22T14:03:17;3.92;;;3.40;;
15536;SDS011;7870;52.448;13.270;2023-06-22T14:05:44;4.72;;;4.03;;
15536;SDS011;7870;52.448;13.270;2023-06-22T14:08:11;6.20;;;4.40;;
15536;SDS011;7870;52.448;13.270;2023-06-22T14:10:58;6.07;;;3.83;;
15536;SDS011;7870;52.448;13.270;2023-06-22T14:13:24;5.78;;;4.10;;
15536;SDS011;7870;52.448;13.270;2023-06-22T14:15:51;4.93;;;4.43;;
15536;SDS011;7870;52.448;13.270;2023-06-22T14:18:18;5.70;;;3.58;;
15536;SDS011;7870;52.448;13.270;2023-06-22T14:20:45;4.72;;;3.97;;
15536;SDS011;7870;52.448;13.270;2023-06-22T14:23:13;4.65;;;3.92;;
15536;SDS011;7870;52.448;13.270;2023-06-22T14:25:40;4.20;;;3.80;;
15536;SDS011;7870;52.448;13.270;2023-06-22T14:28:07;5.93;;;4.13;;
15536;SDS011;7870;52.448;13.270;2023-06-22T14:30:34;5.30;;;3.97;;
15536;SDS011;7870;52.448;13.270;2023-06-22T14:33:00;4.60;;;4.00;;
15536;SDS011;7870;52.448;13.270;2023-06-22T14:35:27;5.80;;;3.97;;
15536;SDS011;7870;52.448;13.270;2023-06-22T14:37:54;6.22;;;3.92;;
15536;SDS011;7870;52.448;13.270;2023-06-22T14:40:20;5.32;;;4.38;;
15536;SDS011;7870;52.448;13.270;2023-06-22T14:42:49;5.30;;;4.35;;
15536;SDS011;7870;52.448;13.270;2023-06-22T14:45:16;5.38;;;4.43;;
15536;SDS011;7870;52.448;13.270;2023-06-22T14:47:43;6.18;;;4.60;;
15536;SDS011;7870;52.448;13.270;2023-06-22T14:50:09;5.20;;;4.60;;
15536;SDS011;7870;52.448;13.270;2023-06-22T14:52:36;4.57;;;4.18;;
15536;SDS011;7870;52.448;13.270;2023-06-22T14:55:03;5.35;;;4.85;;